Jeffersonville, Indiana
Current Conditions -  °F | °C
As of 8:53 PM on Friday 28 Nov 2014 (Local Time) from KLOU Reporting Station
Clear Clear  
Wind Chill: 32°   Ceiling: Unl
Heat Index: 36°   Visibility: 10mi
Dew Point: 20°   Wind: 5mph
Humidity: 52%   Direction: 150°SSE
Pressure: 30.11"   Gusts: NA
Location:  38.28°N, 85.74°W
Report Text: KLOU 290153Z 15004KT 10SM CLR 02/M07 A3011 RMK AO2 SLP202 T00221067
Loading
Personal Weather Stations






























Interactive Weather Map New forecast layout! Learn more

10-Day Weather Forecast

Advertisements
Track Severe Weather on mobile